createdAt,value
2023-09-29T00:01:33.979Z,18.64
2023-09-29T00:04:07.106Z,18.61
2023-09-29T00:06:38.416Z,18.62
2023-09-29T00:09:15.681Z,18.61
2023-09-29T00:11:46.771Z,18.59
2023-09-29T00:14:17.162Z,18.55
2023-09-29T00:16:48.784Z,18.47
2023-09-29T00:19:19.090Z,18.49
2023-09-29T00:21:49.953Z,18.44
2023-09-29T00:24:20.510Z,18.43
2023-09-29T00:26:50.766Z,18.40
2023-09-29T00:29:21.966Z,18.40
2023-09-29T00:31:52.913Z,18.38
2023-09-29T00:34:25.900Z,18.40
2023-09-29T00:36:56.912Z,18.40
2023-09-29T00:39:27.681Z,18.37
2023-09-29T00:42:00.356Z,18.38
2023-09-29T00:44:30.956Z,18.33
2023-09-29T00:47:03.410Z,18.36
2023-09-29T00:49:34.391Z,18.41
2023-09-29T00:52:06.274Z,18.45
2023-09-29T00:54:38.500Z,18.48
2023-09-29T00:57:10.773Z,18.51
2023-09-29T00:59:41.024Z,18.51
2023-09-29T01:02:13.895Z,18.51
2023-09-29T01:04:45.607Z,18.47
2023-09-29T01:07:16.597Z,18.49
2023-09-29T01:09:48.303Z,18.43
2023-09-29T01:12:31.654Z,18.33
2023-09-29T01:15:03.142Z,18.31
2023-09-29T01:17:34.693Z,18.30
2023-09-29T01:20:08.607Z,18.20
2023-09-29T01:22:48.573Z,18.18
2023-09-29T01:25:20.168Z,18.14
2023-09-29T01:27:55.539Z,18.06
2023-09-29T01:30:29.934Z,18.00
2023-09-29T01:33:02.401Z,18.00
2023-09-29T01:35:33.142Z,17.97
2023-09-29T01:38:03.852Z,17.98
2023-09-29T01:40:35.073Z,17.97
2023-09-29T01:43:05.490Z,17.89
2023-09-29T01:45:47.102Z,17.87
2023-09-29T01:48:18.983Z,17.87
2023-09-29T01:50:51.341Z,17.80
2023-09-29T01:53:23.301Z,17.80
2023-09-29T01:55:57.228Z,17.85
2023-09-29T01:58:31.402Z,17.85
2023-09-29T02:01:01.738Z,17.89
2023-09-29T02:03:35.266Z,17.90
2023-09-29T02:06:06.186Z,17.91
2023-09-29T02:08:37.198Z,17.93
2023-09-29T02:11:10.722Z,17.94
2023-09-29T02:13:43.164Z,17.96
2023-09-29T02:16:14.979Z,18.00
2023-09-29T02:18:45.522Z,17.97
2023-09-29T02:21:26.696Z,18.00
2023-09-29T02:24:00.443Z,18.01
2023-09-29T02:26:32.624Z,18.03
2023-09-29T02:29:06.938Z,18.00
2023-09-29T02:31:38.898Z,18.00
2023-09-29T02:34:11.920Z,18.01
2023-09-29T02:36:42.757Z,18.01
2023-09-29T02:39:13.610Z,18.03
2023-09-29T02:41:44.058Z,18.03
2023-09-29T02:44:15.016Z,18.04
2023-09-29T02:46:45.608Z,17.98
2023-09-29T02:49:15.855Z,18.04
2023-09-29T02:51:46.132Z,17.98
2023-09-29T02:54:16.234Z,17.83
2023-09-29T02:56:49.395Z,17.76
2023-09-29T02:59:20.464Z,17.75
2023-09-29T03:01:52.485Z,17.76
2023-09-29T03:04:23.424Z,17.65
2023-09-29T03:06:54.834Z,17.55
2023-09-29T03:09:25.784Z,17.42
2023-09-29T03:11:57.176Z,17.43
2023-09-29T03:14:29.302Z,17.40
2023-09-29T03:17:01.101Z,17.31
2023-09-29T03:19:34.736Z,17.36
2023-09-29T03:22:05.772Z,17.29
2023-09-29T03:24:41.322Z,17.32
2023-09-29T03:27:13.314Z,17.42
2023-09-29T03:29:44.735Z,17.53
2023-09-29T03:32:15.282Z,17.69
2023-09-29T03:34:45.102Z,17.75
2023-09-29T03:37:15.534Z,17.77
2023-09-29T03:39:45.727Z,17.80
2023-09-29T03:42:16.152Z,17.75
2023-09-29T03:44:47.038Z,17.70
2023-09-29T03:47:18.316Z,17.69
2023-09-29T03:49:48.712Z,17.72
2023-09-29T03:52:19.593Z,17.69
2023-09-29T03:54:49.970Z,17.77
2023-09-29T03:57:20.271Z,17.70
2023-09-29T03:59:50.601Z,17.75
2023-09-29T04:02:22.851Z,17.70
2023-09-29T04:04:54.335Z,17.67
2023-09-29T04:07:25.379Z,17.73
2023-09-29T04:09:55.779Z,17.75
2023-09-29T04:12:25.915Z,17.62
2023-09-29T04:14:56.978Z,17.59
2023-09-29T04:17:27.553Z,17.55
2023-09-29T04:19:58.667Z,17.61
2023-09-29T04:22:29.655Z,17.52
2023-09-29T04:25:00.586Z,17.33
2023-09-29T04:27:31.239Z,17.21
2023-09-29T04:30:02.585Z,17.25
2023-09-29T04:32:34.902Z,17.25
2023-09-29T04:35:10.864Z,17.29
2023-09-29T04:37:43.791Z,17.32
2023-09-29T04:40:15.037Z,17.31
2023-09-29T04:42:45.565Z,17.32
2023-09-29T04:45:15.712Z,17.35
2023-09-29T04:47:46.124Z,17.32
2023-09-29T04:50:18.150Z,17.33
2023-09-29T04:52:49.004Z,17.38
2023-09-29T04:55:19.396Z,17.45
2023-09-29T04:57:49.497Z,17.39
2023-09-29T05:00:20.606Z,17.39
2023-09-29T05:02:52.314Z,17.43
2023-09-29T05:05:23.354Z,17.38
2023-09-29T05:07:53.599Z,17.38
2023-09-29T05:10:25.409Z,17.36
2023-09-29T05:12:56.482Z,17.33
2023-09-29T05:15:27.403Z,17.33
2023-09-29T05:17:57.795Z,17.35
2023-09-29T05:20:29.304Z,17.22
2023-09-29T05:23:02.540Z,17.14
2023-09-29T05:25:32.908Z,17.08
2023-09-29T05:28:06.130Z,17.04
2023-09-29T05:30:36.466Z,17.00
2023-09-29T05:33:06.935Z,16.98
2023-09-29T05:35:38.424Z,17.00
2023-09-29T05:38:08.668Z,16.96
2023-09-29T05:40:40.887Z,16.96
2023-09-29T05:43:15.002Z,16.92
2023-09-29T05:45:47.402Z,16.87
2023-09-29T05:48:18.937Z,16.84
2023-09-29T05:50:51.178Z,16.85
2023-09-29T05:53:21.680Z,16.81
2023-09-29T05:55:51.856Z,16.80
2023-09-29T05:58:22.917Z,16.78
2023-09-29T06:00:55.096Z,16.77
2023-09-29T06:03:27.621Z,16.77
2023-09-29T06:06:00.139Z,16.80
2023-09-29T06:08:38.832Z,16.78
2023-09-29T06:11:18.902Z,16.78
2023-09-29T06:13:49.847Z,16.85
2023-09-29T06:16:20.291Z,16.89
2023-09-29T06:18:51.358Z,16.91
2023-09-29T06:21:21.966Z,16.95
2023-09-29T06:23:52.475Z,17.02
2023-09-29T06:26:23.434Z,17.07
2023-09-29T06:28:55.111Z,17.08
2023-09-29T06:31:26.124Z,17.08
2023-09-29T06:33:58.034Z,17.11
2023-09-29T06:36:28.968Z,17.08
2023-09-29T06:39:00.331Z,17.08
2023-09-29T06:41:30.736Z,17.05
2023-09-29T06:44:01.585Z,17.08
2023-09-29T06:46:31.678Z,17.02
2023-09-29T06:49:04.240Z,17.01
2023-09-29T06:51:35.089Z,17.02
2023-09-29T06:54:06.725Z,17.07
2023-09-29T06:56:37.417Z,17.10
2023-09-29T06:59:09.763Z,17.19
2023-09-29T07:01:41.345Z,17.23
2023-09-29T07:04:13.344Z,17.26
2023-09-29T07:06:45.323Z,17.23
2023-09-29T07:09:17.077Z,17.19
2023-09-29T07:11:47.512Z,17.07
2023-09-29T07:14:18.528Z,17.08
2023-09-29T07:16:53.263Z,17.08
2023-09-29T07:19:24.210Z,17.05
2023-09-29T07:21:55.650Z,17.08
2023-09-29T07:24:26.432Z,17.12
2023-09-29T07:26:57.151Z,17.04
2023-09-29T07:29:27.325Z,17.07
2023-09-29T07:31:58.317Z,17.02
2023-09-29T07:34:30.705Z,16.95
2023-09-29T07:37:00.932Z,16.94
2023-09-29T07:39:31.444Z,16.95
2023-09-29T07:42:02.765Z,17.01
2023-09-29T07:44:35.286Z,16.98
2023-09-29T07:47:05.540Z,16.98
2023-09-29T07:49:37.386Z,17.00
2023-09-29T07:52:07.834Z,17.07
2023-09-29T07:54:38.506Z,17.04
2023-09-29T07:57:09.745Z,17.01
2023-09-29T07:59:41.407Z,17.00
2023-09-29T08:02:11.868Z,16.98
2023-09-29T08:04:41.714Z,16.96
2023-09-29T08:07:14.012Z,16.95
2023-09-29T08:09:44.394Z,16.94
2023-09-29T08:12:15.084Z,16.91
2023-09-29T08:14:47.805Z,16.91
2023-09-29T08:17:19.055Z,16.89
2023-09-29T08:19:49.739Z,16.91
2023-09-29T08:22:26.553Z,16.88
2023-09-29T08:25:11.310Z,16.87
2023-09-29T08:27:42.331Z,16.85
2023-09-29T08:30:13.868Z,16.85
2023-09-29T08:32:46.481Z,16.85
2023-09-29T08:35:18.120Z,16.87
2023-09-29T08:37:48.989Z,16.84
2023-09-29T08:40:21.005Z,16.81
2023-09-29T08:42:55.266Z,16.80
2023-09-29T08:45:31.661Z,16.77
2023-09-29T08:48:05.606Z,16.80
2023-09-29T08:50:36.420Z,16.80
2023-09-29T08:53:08.958Z,16.80
2023-09-29T08:55:42.842Z,16.81
2023-09-29T08:58:13.475Z,16.78
2023-09-29T09:00:45.703Z,16.75
2023-09-29T09:03:20.893Z,16.78
2023-09-29T09:05:51.856Z,16.80
2023-09-29T09:08:23.929Z,16.78
2023-09-29T09:11:05.022Z,16.80
2023-09-29T09:13:35.667Z,16.78
2023-09-29T09:16:07.299Z,16.77
2023-09-29T09:18:40.323Z,16.78
2023-09-29T09:21:10.689Z,16.81
2023-09-29T09:23:41.270Z,16.92
2023-09-29T09:26:19.465Z,16.96
2023-09-29T09:28:49.931Z,16.96
2023-09-29T09:31:21.256Z,17.00
2023-09-29T09:33:56.650Z,17.07
2023-09-29T09:36:27.417Z,17.11
2023-09-29T09:38:59.120Z,17.14
2023-09-29T09:41:30.597Z,17.18
2023-09-29T09:44:04.007Z,17.22
2023-09-29T09:46:42.187Z,17.31
2023-09-29T09:49:17.070Z,17.29
2023-09-29T09:51:50.166Z,17.28
2023-09-29T09:54:26.038Z,17.29
2023-09-29T09:57:12.922Z,17.39
2023-09-29T09:59:44.824Z,17.49
2023-09-29T10:02:17.137Z,17.57
2023-09-29T10:04:49.137Z,17.67
2023-09-29T10:07:20.688Z,17.70
2023-09-29T10:09:52.781Z,17.76
2023-09-29T10:12:28.503Z,17.89
2023-09-29T10:15:00.689Z,17.98
2023-09-29T10:17:46.002Z,18.07
2023-09-29T10:20:27.672Z,18.27
2023-09-29T10:23:16.362Z,18.54
2023-09-29T10:26:00.524Z,20.51
2023-09-29T10:28:38.717Z,20.56
2023-09-29T10:31:17.600Z,19.83
2023-09-29T10:33:58.741Z,19.59
2023-09-29T10:36:32.421Z,19.24
2023-09-29T10:39:07.279Z,19.15
2023-09-29T10:41:40.638Z,19.26
2023-09-29T10:44:12.677Z,19.10
2023-09-29T10:46:53.883Z,19.27
2023-09-29T10:49:34.940Z,19.37
2023-09-29T10:52:05.346Z,19.36
2023-09-29T10:54:47.021Z,19.40
2023-09-29T10:57:23.751Z,19.97
2023-09-29T10:59:55.277Z,20.32
2023-09-29T11:02:32.046Z,19.80
2023-09-29T11:05:07.900Z,19.74
2023-09-29T11:07:53.378Z,20.29
2023-09-29T11:10:24.094Z,20.45
2023-09-29T11:12:55.123Z,20.71
2023-09-29T11:15:29.872Z,21.19
2023-09-29T11:18:02.697Z,21.50
2023-09-29T11:20:34.718Z,21.62
2023-09-29T11:23:14.071Z,21.57
2023-09-29T11:25:52.434Z,21.31
2023-09-29T11:28:24.507Z,21.70
2023-09-29T11:30:54.799Z,22.04
2023-09-29T11:33:26.870Z,22.35
2023-09-29T11:36:06.437Z,22.48
2023-09-29T11:38:37.756Z,22.59
2023-09-29T11:41:09.061Z,22.86
2023-09-29T11:43:42.920Z,22.96
2023-09-29T11:46:13.527Z,23.07
2023-09-29T11:48:45.121Z,23.08
2023-09-29T11:51:15.957Z,23.00
2023-09-29T11:53:46.832Z,22.80
2023-09-29T11:56:18.146Z,22.48
2023-09-29T11:58:48.145Z,23.00
2023-09-29T12:01:19.716Z,23.14
2023-09-29T12:03:50.162Z,23.20
2023-09-29T12:06:20.360Z,23.47
2023-09-29T12:08:50.842Z,23.43
2023-09-29T12:11:24.379Z,23.15
2023-09-29T12:13:54.939Z,23.21
2023-09-29T12:16:26.116Z,23.23
2023-09-29T12:18:58.430Z,23.27
2023-09-29T12:21:29.554Z,23.23
2023-09-29T12:24:01.443Z,23.30
2023-09-29T12:26:31.762Z,23.30
2023-09-29T12:29:01.953Z,23.25
2023-09-29T12:31:32.949Z,23.35
2023-09-29T12:34:03.260Z,23.30
2023-09-29T12:36:33.985Z,23.45
2023-09-29T12:39:08.070Z,23.62
2023-09-29T12:41:40.520Z,23.62
2023-09-29T12:44:11.694Z,23.24
2023-09-29T12:46:41.952Z,23.00
2023-09-29T12:49:14.188Z,22.42
2023-09-29T12:51:59.517Z,23.11
2023-09-29T12:54:30.685Z,23.00
2023-09-29T12:57:03.340Z,23.35
2023-09-29T12:59:39.597Z,23.30
2023-09-29T13:02:11.244Z,23.11
2023-09-29T13:04:42.528Z,23.17
2023-09-29T13:07:13.715Z,22.73
2023-09-29T13:09:44.653Z,22.79
2023-09-29T13:12:30.292Z,22.28
2023-09-29T13:15:02.352Z,21.84
2023-09-29T13:17:33.222Z,21.74
2023-09-29T13:20:03.467Z,21.78
2023-09-29T13:22:33.569Z,22.08
2023-09-29T13:25:06.847Z,22.16
2023-09-29T13:27:38.559Z,22.15
2023-09-29T13:30:11.590Z,21.90
2023-09-29T13:32:44.082Z,21.85
2023-09-29T13:35:15.284Z,21.74
2023-09-29T13:37:46.412Z,21.60
2023-09-29T13:40:17.462Z,21.47
2023-09-29T13:42:49.719Z,21.40
2023-09-29T13:45:21.713Z,21.46
2023-09-29T13:47:53.425Z,21.54
2023-09-29T13:50:23.974Z,21.57
2023-09-29T13:52:54.422Z,21.37
2023-09-29T13:55:25.020Z,21.29
2023-09-29T13:57:56.011Z,21.30
2023-09-29T14:00:26.985Z,21.34
2023-09-29T14:02:58.277Z,21.37
2023-09-29T14:05:30.610Z,21.43
2023-09-29T14:08:01.183Z,21.41
2023-09-29T14:10:33.236Z,21.44
2023-09-29T14:13:04.070Z,21.40
2023-09-29T14:15:35.391Z,21.31
2023-09-29T14:18:07.334Z,21.41
2023-09-29T14:20:39.209Z,21.64
2023-09-29T14:23:14.141Z,22.02
2023-09-29T14:25:44.685Z,22.09
2023-09-29T14:28:16.037Z,21.88
2023-09-29T14:30:46.528Z,21.68
2023-09-29T14:33:17.538Z,21.65
2023-09-29T14:35:49.517Z,21.62
2023-09-29T14:38:21.226Z,21.62
2023-09-29T14:40:52.434Z,21.55
2023-09-29T14:43:25.434Z,21.62
2023-09-29T14:45:57.082Z,21.67
2023-09-29T14:48:27.388Z,21.47
2023-09-29T14:50:58.453Z,21.37
2023-09-29T14:53:28.854Z,21.40
2023-09-29T14:55:59.382Z,21.61
2023-09-29T14:58:29.471Z,21.67
2023-09-29T15:01:00.189Z,21.73
2023-09-29T15:03:33.799Z,21.81
2023-09-29T15:06:15.352Z,22.15
2023-09-29T15:08:46.015Z,22.52
2023-09-29T15:11:24.329Z,23.07
2023-09-29T15:13:55.556Z,23.03
2023-09-29T15:16:28.520Z,22.67
2023-09-29T15:18:59.794Z,22.57
2023-09-29T15:21:31.846Z,22.52
2023-09-29T15:24:02.166Z,22.29
2023-09-29T15:26:33.404Z,22.18
2023-09-29T15:29:04.441Z,22.23
2023-09-29T15:31:34.610Z,22.22
2023-09-29T15:34:05.736Z,22.36
2023-09-29T15:36:36.297Z,22.49
2023-09-29T15:39:08.684Z,22.48
2023-09-29T15:41:39.636Z,22.35
2023-09-29T15:44:10.615Z,22.41
2023-09-29T15:46:42.378Z,22.42
2023-09-29T15:49:13.862Z,22.62
2023-09-29T15:51:44.275Z,22.48
2023-09-29T15:54:14.912Z,22.57
2023-09-29T15:56:45.700Z,22.94
2023-09-29T15:59:16.999Z,23.34
2023-09-29T16:01:48.211Z,23.54
2023-09-29T16:04:19.254Z,23.57
2023-09-29T16:06:50.385Z,23.58
2023-09-29T16:09:20.715Z,23.54
2023-09-29T16:11:51.479Z,23.62
2023-09-29T16:14:22.469Z,23.53
2023-09-29T16:16:52.680Z,23.65
2023-09-29T16:19:23.451Z,23.40
2023-09-29T16:21:55.043Z,23.35
2023-09-29T16:24:26.544Z,23.43
2023-09-29T16:26:57.921Z,23.30
2023-09-29T16:29:28.316Z,23.53
2023-09-29T16:31:59.631Z,23.44
2023-09-29T16:34:30.848Z,23.44
2023-09-29T16:37:02.218Z,23.47
2023-09-29T16:39:34.685Z,23.47
2023-09-29T16:42:05.733Z,23.55
2023-09-29T16:44:36.994Z,23.54
2023-09-29T16:47:07.134Z,23.54
2023-09-29T16:49:37.993Z,23.51
2023-09-29T16:52:09.984Z,23.43
2023-09-29T16:54:41.194Z,23.45
2023-09-29T16:57:12.871Z,23.44
2023-09-29T16:59:43.817Z,23.31
2023-09-29T17:02:14.020Z,23.03
2023-09-29T17:04:45.571Z,22.92
2023-09-29T17:07:16.746Z,22.99
2023-09-29T17:09:47.232Z,22.84
2023-09-29T17:12:18.749Z,22.74
2023-09-29T17:14:49.616Z,22.66
2023-09-29T17:17:19.812Z,22.57
2023-09-29T17:19:52.746Z,22.53
2023-09-29T17:22:23.793Z,22.56
2023-09-29T17:24:53.970Z,22.62
2023-09-29T17:27:24.607Z,22.45
2023-09-29T17:29:55.654Z,22.29
2023-09-29T17:32:25.851Z,22.86
2023-09-29T17:35:02.227Z,22.53
2023-09-29T17:37:34.529Z,22.16
2023-09-29T17:40:05.211Z,21.94
2023-09-29T17:42:36.171Z,22.04
2023-09-29T17:45:06.948Z,22.08
2023-09-29T17:47:37.089Z,22.19
2023-09-29T17:50:07.902Z,22.08
2023-09-29T17:52:42.587Z,22.04
2023-09-29T17:55:12.613Z,22.13
2023-09-29T17:57:42.749Z,22.13
2023-09-29T18:00:13.692Z,22.12
2023-09-29T18:02:45.099Z,21.98
2023-09-29T18:05:20.516Z,21.90
2023-09-29T18:07:51.438Z,21.88
2023-09-29T18:10:22.612Z,21.77
2023-09-29T18:12:53.002Z,21.74
2023-09-29T18:15:23.634Z,21.68
2023-09-29T18:17:53.884Z,21.64
2023-09-29T18:20:25.186Z,21.58
2023-09-29T18:22:55.479Z,21.54
2023-09-29T18:25:25.597Z,21.53
2023-09-29T18:27:57.182Z,21.44
2023-09-29T18:30:30.493Z,21.41
2023-09-29T18:33:01.155Z,21.46
2023-09-29T18:35:31.449Z,21.48
2023-09-29T18:38:02.765Z,21.44
2023-09-29T18:40:33.091Z,21.37
2023-09-29T18:43:05.553Z,21.33
2023-09-29T18:45:38.962Z,21.27
2023-09-29T18:48:09.882Z,21.26
2023-09-29T18:50:43.044Z,21.17
2023-09-29T18:53:14.445Z,21.09
2023-09-29T18:55:44.903Z,20.99
2023-09-29T18:58:15.189Z,20.99
2023-09-29T19:00:46.668Z,20.87
2023-09-29T19:03:17.361Z,20.85
2023-09-29T19:05:47.502Z,20.90
2023-09-29T19:08:18.066Z,20.93
2023-09-29T19:10:49.486Z,20.95
2023-09-29T19:13:22.170Z,20.95
2023-09-29T19:15:54.781Z,20.90
2023-09-29T19:18:25.350Z,20.85
2023-09-29T19:20:56.227Z,20.89
2023-09-29T19:23:26.545Z,20.90
2023-09-29T19:25:57.877Z,20.83
2023-09-29T19:28:28.338Z,20.77
2023-09-29T19:31:00.753Z,20.75
2023-09-29T19:33:32.511Z,20.66
2023-09-29T19:36:02.605Z,20.65
2023-09-29T19:38:34.865Z,20.64
2023-09-29T19:41:05.054Z,20.64
2023-09-29T19:43:35.212Z,20.75
2023-09-29T19:46:06.245Z,20.93
2023-09-29T19:48:37.161Z,21.17
2023-09-29T19:51:14.629Z,21.09
2023-09-29T19:53:45.345Z,20.92
2023-09-29T19:56:23.011Z,20.77
2023-09-29T19:58:54.311Z,20.62
2023-09-29T20:01:25.247Z,20.51
2023-09-29T20:03:56.838Z,20.46
2023-09-29T20:06:27.403Z,20.44
2023-09-29T20:08:58.095Z,20.35
2023-09-29T20:11:28.766Z,20.32
2023-09-29T20:13:59.402Z,20.31
2023-09-29T20:16:30.075Z,20.28
2023-09-29T20:19:00.358Z,20.31
2023-09-29T20:21:32.396Z,20.20
2023-09-29T20:24:03.533Z,20.21
2023-09-29T20:26:38.182Z,20.15
2023-09-29T20:29:08.535Z,20.15
2023-09-29T20:31:38.527Z,20.13
2023-09-29T20:34:09.390Z,20.08
2023-09-29T20:36:40.692Z,20.04
2023-09-29T20:39:11.277Z,19.93
2023-09-29T20:41:41.883Z,19.91
2023-09-29T20:44:14.648Z,19.88
2023-09-29T20:46:45.250Z,19.85
2023-09-29T20:49:16.063Z,19.84
2023-09-29T20:51:46.321Z,19.81
2023-09-29T20:54:16.484Z,19.78
2023-09-29T20:56:47.016Z,19.78
2023-09-29T20:59:17.907Z,19.78
2023-09-29T21:01:48.445Z,19.78
2023-09-29T21:04:19.004Z,19.71
2023-09-29T21:06:50.692Z,19.70
2023-09-29T21:09:21.437Z,19.70
2023-09-29T21:11:52.587Z,19.70
2023-09-29T21:14:22.789Z,19.69
2023-09-29T21:16:52.926Z,19.62
2023-09-29T21:19:23.783Z,19.63
2023-09-29T21:21:54.451Z,19.60
2023-09-29T21:24:24.852Z,19.60
2023-09-29T21:26:55.165Z,19.59
2023-09-29T21:29:25.728Z,19.60
2023-09-29T21:31:59.855Z,19.59
2023-09-29T21:34:31.054Z,19.56
2023-09-29T21:37:02.244Z,19.54
2023-09-29T21:39:33.891Z,19.54
2023-09-29T21:42:06.382Z,19.57
2023-09-29T21:44:37.539Z,19.56
2023-09-29T21:47:08.785Z,19.54
2023-09-29T21:49:39.337Z,19.56
2023-09-29T21:52:09.609Z,19.53
2023-09-29T21:54:40.472Z,19.56
2023-09-29T21:57:11.107Z,19.53
2023-09-29T21:59:42.288Z,19.57
2023-09-29T22:02:12.509Z,19.54
2023-09-29T22:04:43.627Z,19.54
2023-09-29T22:07:14.077Z,19.52
2023-09-29T22:09:45.446Z,19.46
2023-09-29T22:12:16.511Z,19.47
2023-09-29T22:14:48.124Z,19.46
2023-09-29T22:17:18.545Z,19.49
2023-09-29T22:19:48.694Z,19.49
2023-09-29T22:22:20.169Z,19.46
2023-09-29T22:24:51.332Z,19.42
2023-09-29T22:27:21.947Z,19.40
2023-09-29T22:29:53.701Z,19.40
2023-09-29T22:32:25.135Z,19.34
2023-09-29T22:34:56.897Z,19.27
2023-09-29T22:37:27.960Z,19.27
2023-09-29T22:39:59.124Z,19.27
2023-09-29T22:42:31.988Z,19.27
2023-09-29T22:45:07.514Z,19.29
2023-09-29T22:47:38.285Z,19.32
2023-09-29T22:50:09.897Z,19.33
2023-09-29T22:52:40.062Z,19.32
2023-09-29T22:55:10.977Z,19.32
2023-09-29T22:57:42.995Z,19.32
2023-09-29T23:00:15.071Z,19.32
2023-09-29T23:02:48.302Z,19.29
2023-09-29T23:05:19.880Z,19.26
2023-09-29T23:07:50.274Z,19.29
2023-09-29T23:10:20.642Z,19.24
2023-09-29T23:12:51.594Z,19.20
2023-09-29T23:15:23.656Z,19.19
2023-09-29T23:17:53.729Z,19.22
2023-09-29T23:20:25.348Z,19.19
2023-09-29T23:22:57.180Z,19.20
2023-09-29T23:25:27.881Z,19.22
2023-09-29T23:27:59.226Z,19.23
2023-09-29T23:30:31.758Z,19.19
2023-09-29T23:33:04.051Z,19.20
2023-09-29T23:35:36.361Z,19.15
2023-09-29T23:38:08.667Z,19.10
2023-09-29T23:40:38.784Z,19.06
2023-09-29T23:43:09.013Z,19.03
2023-09-29T23:45:40.414Z,19.00
2023-09-29T23:48:11.621Z,18.98
2023-09-29T23:50:42.762Z,18.96
2023-09-29T23:53:13.647Z,18.95
2023-09-29T23:55:43.755Z,18.94
2023-09-29T23:58:15.539Z,18.96
